Aérodrome :
LOGIN :

S'inscrire | Disclaimer

   EN    FR    IT 

 










Légende :    VFR   VFR Marginal   IFR   IFR Intensif   IFR Très Intensif
Visi : 
Plafond : 
>= 8 km
>= 3000ft
5 à 8 km
1000 à 3000 ft
1500m à 5 km
500 à 1000 ft
800 à 1500m
200 à 500 ft
< 800m
< 200 ft
Symboles :   Orages  Brouillard  Fortes neiges  Fortes précipitations  Vent > 20 kt
SIGMETs :   Divers  Orages  Givrage  Turbulence  Onde Orograph.  Cendres Volcan.







- Altitude de l'aérodrome : 863 ft
- Code IATA : ZAZ


LEZG - Zaragoza Aragon

DERNIER METAR :
  • 231530Z 34003KT 310V010 5000 HZ SCT055 12/08 Q1014

METARs EXPIRÉS :
  • 231500Z 34003KT 300V020 5000 HZ SCT055 12/08 Q1014
  • 231430Z 01003KT 330V080 5000 HZ SCT055 13/08 Q1015
  • 231400Z 10003KT 040V170 5000 HZ SCT055 13/07 Q1015
  • 231330Z VRB02KT 4500 HZ SCT055 12/07 Q1016
  • 231300Z VRB01KT 4000 HZ SCT055 12/07 Q1016

TAF TAF LEZG
Valide du 23 à 12h jusqu'au 24 à 12h UTC


231100Z 2312/2412 VRB04KT 9999 SCT060 TX13/2314Z TN06/2407Z
PROB40
TEMPO 2312/2318 3000 BR
BECMG 2318/2320 30015KT
TEMPO 2400/2412 30020G30KT
Pas de NOTAMs connus pour ce terrain.
1 SIGMET publié pour la FIR Madrid (LECM) :
 
Orages noyés dans la masse
LECM SIGMET 7 VALID 231500/231700 LEVA
LECM MADRID FIR/UIR EMBD TS OBS AT 1446Z WI N3720 W00530 - N3610 W00530 - N3620 W00220 - N3930 W00130 - N3930 W00350 TOP FL320 STNR NC=



MET'MAP, la Météo Aéronautique d'un coup d'oeil ! - Copyright ORBIFLY Décembre 2007 - Disclaimer

ORBIFLY MET'MAP TEAM :

Programmation & Développement : Alexandra Zaïnal
Conception & Développement : Baudouin d'Aumeries
Co-Programmation & Développement : Marc-Olivier Méhu
Soutien technique & logistique : Manuel Goepfert

Contact : metmap@orbifly.com




SOURCES & CREDITS :

   NOAA